Language selection

Features

My Weather Profile Weather Topics  | 

Northeast Gulf: Past 24 Hour Conditions

 

Banquereau - 44139

04:00 AM ADT 21 October 2019Buoy position: 44.27N 57.08W
Disclaimer

This table is a summary of hourly weather conditions for the past 24 hours.
Please note that these observations might not always be representative of weather conditions over their associated marine area.

Date / Time
(ADT)
Wind(knots) Wave height(m) Wave period(s) Pressure(kPa) Air tempC) Water tempC)
21 October 2019
4:00 NNW 16 gust 19 2.6 8.0 101.9 10 12
3:00 NNW 16 gust 19 2.4 8.0 101.8 10 12
2:00 NNW 17 gust 22 2.5 7.0 101.8 11 12
1:00 NNW 16 gust 19 2.5 7.0 101.8 11 12
0:00 NNW 16 gust 19 2.7 8.0 101.8 11 12
20 October 2019
23:00 NNW 19 gust 23 2.8 8.0 101.7 11 12
22:00 NNW 16 gust 22 2.6 9.0 101.7 11 12
21:00 NNW 19 gust 23 2.7 9.0 101.7 11 12
20:00 NW 19 gust 23 2.7 7.0 101.6 11 12
19:00 NW 17 gust 23 2.4 7.0 101.6 11 12
18:00 NW 19 gust 23 2.6 8.0 101.5 11 12
17:00 NW 17 gust 22 2.6 9.0 101.4 11 12
16:00 NNW 19 gust 23 2.7 9.0 101.4 10 12
15:00 NW 17 gust 22 2.7 9.0 101.3 10 12
14:00 NW 19 gust 23 2.8 9.0 101.3 11 12
13:00 NW 19 gust 25 3.0 9.0 101.3 10 12
12:00 NW 19 gust 23 3.0 9.0 101.3 11 13
11:00 NW 22 gust 25 2.9 10.0 101.3 11 13
10:00 NW 19 gust 23 2.8 10.0 101.2 11 13
9:00 NW 19 gust 25 2.8 10.0 101.2 11 13
8:00 NW 19 gust 25 2.6 9.0 101.1 11 13
7:00 NW 19 gust 23 2.6 9.0 101.1 11 13
6:00 NW 23 gust 29 2.5 10.0 101.1 10 13
5:00 NW 22 gust 25 2.7 10.0 101.0 11 12
4:00 NW 17 gust 22 2.5 10.0 100.9 11 12

Zoom-in to make a selection

Map of Atlantic - Newfoundland marine weather areas Banquereau - 44139 Blanc-Sablon Airport Cap Whittle Chevery Natashquan Airport Heath Point Îles de la Madeleine Airport Miscou Island Eskasoni (First Nations) Grand Étang Ingonish Beach North Mountain St.Paul Island J.A. Douglas McCurdy Sydney Airport Charlottetown Airport East Point North Cape Argentia Bonavista Burgeo Cape Race Corner Brook Daniel's Harbour Englee Ferolle Point La Scie Port aux Basques Rocky Harbour Sagona Island St. Anthony Airport St. John's Int'l Airport St. Lawrence Stephenville Airport Twillingate Winterland Branch Hill Wreckhouse Grates Cove Pool's Island Marticot Island Long Pond Cartwright Airport Mary's Harbour
Legend:
buoy Buoy
land station Land Station

Atlantic - Newfoundland Area

Another Region

What we are doing

Date modified: